sensor_id;sensor_type;location;lat;lon;timestamp;P1;durP1;ratioP1;P2;durP2;ratioP2
74229;SDS011;62589;12.568;99.958;2022-11-25T00:00:47;10.90;;;9.90;;
74229;SDS011;62589;12.568;99.958;2022-11-25T00:03:14;11.05;;;9.82;;
74229;SDS011;62589;12.568;99.958;2022-11-25T00:05:41;10.60;;;9.60;;
74229;SDS011;62589;12.568;99.958;2022-11-25T00:08:08;10.35;;;9.27;;
74229;SDS011;62589;12.568;99.958;2022-11-25T00:10:34;10.60;;;9.50;;
74229;SDS011;62589;12.568;99.958;2022-11-25T00:13:01;11.63;;;9.93;;
74229;SDS011;62589;12.568;99.958;2022-11-25T00:15:28;11.27;;;9.40;;
74229;SDS011;62589;12.568;99.958;2022-11-25T00:17:54;11.30;;;9.25;;
74229;SDS011;62589;12.568;99.958;2022-11-25T00:20:20;10.82;;;9.30;;
74229;SDS011;62589;12.568;99.958;2022-11-25T00:22:47;11.00;;;9.10;;
74229;SDS011;62589;12.568;99.958;2022-11-25T00:25:13;10.93;;;9.60;;
74229;SDS011;62589;12.568;99.958;2022-11-25T00:27:40;10.48;;;9.38;;
74229;SDS011;62589;12.568;99.958;2022-11-25T00:30:06;10.25;;;9.10;;
74229;SDS011;62589;12.568;99.958;2022-11-25T00:32:33;9.90;;;8.90;;
74229;SDS011;62589;12.568;99.958;2022-11-25T00:34:59;10.68;;;8.90;;
74229;SDS011;62589;12.568;99.958;2022-11-25T00:37:26;10.40;;;9.07;;
74229;SDS011;62589;12.568;99.958;2022-11-25T00:39:52;8.90;;;8.10;;
74229;SDS011;62589;12.568;99.958;2022-11-25T00:42:18;9.15;;;8.23;;
74229;SDS011;62589;12.568;99.958;2022-11-25T00:44:56;9.50;;;7.93;;
74229;SDS011;62589;12.568;99.958;2022-11-25T00:47:23;9.77;;;8.10;;
74229;SDS011;62589;12.568;99.958;2022-11-25T00:49:50;10.90;;;8.38;;
74229;SDS011;62589;12.568;99.958;2022-11-25T00:52:20;13.38;;;8.75;;
74229;SDS011;62589;12.568;99.958;2022-11-25T00:54:49;9.93;;;8.88;;
74229;SDS011;62589;12.568;99.958;2022-11-25T00:57:17;11.10;;;9.55;;
74229;SDS011;62589;12.568;99.958;2022-11-25T00:59:44;12.25;;;9.75;;
74229;SDS011;62589;12.568;99.958;2022-11-25T01:02:12;10.18;;;9.18;;
74229;SDS011;62589;12.568;99.958;2022-11-25T01:04:39;10.55;;;9.45;;
74229;SDS011;62589;12.568;99.958;2022-11-25T01:07:06;10.13;;;8.02;;
74229;SDS011;62589;12.568;99.958;2022-11-25T01:09:32;11.00;;;8.60;;
74229;SDS011;62589;12.568;99.958;2022-11-25T01:11:59;9.55;;;8.65;;
74229;SDS011;62589;12.568;99.958;2022-11-25T01:14:25;10.50;;;9.32;;
74229;SDS011;62589;12.568;99.958;2022-11-25T01:16:52;10.65;;;9.55;;
74229;SDS011;62589;12.568;99.958;2022-11-25T01:19:18;11.35;;;10.05;;
74229;SDS011;62589;12.568;99.958;2022-11-25T01:21:45;11.05;;;9.57;;
74229;SDS011;62589;12.568;99.958;2022-11-25T01:24:12;10.68;;;9.57;;
74229;SDS011;62589;12.568;99.958;2022-11-25T01:26:40;9.85;;;8.85;;
74229;SDS011;62589;12.568;99.958;2022-11-25T01:29:09;12.60;;;10.30;;
74229;SDS011;62589;12.568;99.958;2022-11-25T01:31:40;15.30;;;10.80;;
74229;SDS011;62589;12.568;99.958;2022-11-25T01:34:16;13.00;;;10.32;;
74229;SDS011;62589;12.568;99.958;2022-11-25T01:36:44;11.95;;;10.75;;
74229;SDS011;62589;12.568;99.958;2022-11-25T01:39:16;13.88;;;10.82;;
74229;SDS011;62589;12.568;99.958;2022-11-25T01:41:44;11.98;;;9.52;;
74229;SDS011;62589;12.568;99.958;2022-11-25T01:44:18;10.25;;;8.70;;
74229;SDS011;62589;12.568;99.958;2022-11-25T01:49:53;8.00;;;7.13;;
74229;SDS011;62589;12.568;99.958;2022-11-25T01:52:28;7.97;;;7.18;;
74229;SDS011;62589;12.568;99.958;2022-11-25T01:55:00;8.15;;;6.80;;
74229;SDS011;62589;12.568;99.958;2022-11-25T02:00:19;7.82;;;7.05;;
74229;SDS011;62589;12.568;99.958;2022-11-25T02:02:46;8.55;;;6.97;;
74229;SDS011;62589;12.568;99.958;2022-11-25T02:05:17;9.20;;;8.30;;
74229;SDS011;62589;12.568;99.958;2022-11-25T02:07:47;9.63;;;7.55;;
74229;SDS011;62589;12.568;99.958;2022-11-25T02:10:20;14.43;;;8.95;;
74229;SDS011;62589;12.568;99.958;2022-11-25T02:12:50;8.80;;;7.90;;
74229;SDS011;62589;12.568;99.958;2022-11-25T02:15:18;10.65;;;7.93;;
74229;SDS011;62589;12.568;99.958;2022-11-25T02:17:45;10.10;;;7.75;;
74229;SDS011;62589;12.568;99.958;2022-11-25T02:20:13;8.63;;;7.82;;
74229;SDS011;62589;12.568;99.958;2022-11-25T02:25:34;9.93;;;7.85;;
74229;SDS011;62589;12.568;99.958;2022-11-25T02:28:07;9.00;;;7.55;;
74229;SDS011;62589;12.568;99.958;2022-11-25T02:30:37;8.20;;;7.50;;
74229;SDS011;62589;12.568;99.958;2022-11-25T02:33:04;9.00;;;8.20;;
74229;SDS011;62589;12.568;99.958;2022-11-25T02:35:32;12.52;;;9.23;;
74229;SDS011;62589;12.568;99.958;2022-11-25T02:38:18;10.24;;;9.26;;
74229;SDS011;62589;12.568;99.958;2022-11-25T02:40:59;8.43;;;7.63;;
74229;SDS011;62589;12.568;99.958;2022-11-25T02:43:32;8.43;;;7.65;;
74229;SDS011;62589;12.568;99.958;2022-11-25T02:46:03;10.50;;;8.20;;
74229;SDS011;62589;12.568;99.958;2022-11-25T02:48:35;9.75;;;8.75;;
74229;SDS011;62589;12.568;99.958;2022-11-25T02:51:03;10.00;;;9.00;;
74229;SDS011;62589;12.568;99.958;2022-11-25T02:53:30;9.57;;;8.23;;
74229;SDS011;62589;12.568;99.958;2022-11-25T02:55:57;8.80;;;8.00;;
74229;SDS011;62589;12.568;99.958;2022-11-25T02:58:24;9.02;;;8.13;;
74229;SDS011;62589;12.568;99.958;2022-11-25T03:00:50;8.27;;;7.50;;
74229;SDS011;62589;12.568;99.958;2022-11-25T03:03:17;8.68;;;7.88;;
74229;SDS011;62589;12.568;99.958;2022-11-25T03:05:43;9.38;;;8.48;;
74229;SDS011;62589;12.568;99.958;2022-11-25T03:08:10;8.70;;;7.80;;
74229;SDS011;62589;12.568;99.958;2022-11-25T03:10:37;9.20;;;8.05;;
74229;SDS011;62589;12.568;99.958;2022-11-25T03:13:03;8.82;;;7.85;;
74229;SDS011;62589;12.568;99.958;2022-11-25T03:15:32;9.27;;;8.23;;
74229;SDS011;62589;12.568;99.958;2022-11-25T03:18:00;8.73;;;7.82;;
74229;SDS011;62589;12.568;99.958;2022-11-25T03:20:27;8.68;;;7.78;;
74229;SDS011;62589;12.568;99.958;2022-11-25T03:22:54;8.45;;;7.65;;
74229;SDS011;62589;12.568;99.958;2022-11-25T03:25:20;7.53;;;6.82;;
74229;SDS011;62589;12.568;99.958;2022-11-25T03:27:47;7.57;;;6.78;;
74229;SDS011;62589;12.568;99.958;2022-11-25T03:30:14;7.47;;;6.50;;
74229;SDS011;62589;12.568;99.958;2022-11-25T03:32:43;7.47;;;6.68;;
74229;SDS011;62589;12.568;99.958;2022-11-25T03:35:10;7.30;;;6.38;;
74229;SDS011;62589;12.568;99.958;2022-11-25T03:37:37;6.70;;;6.07;;
74229;SDS011;62589;12.568;99.958;2022-11-25T03:40:04;7.28;;;6.18;;
74229;SDS011;62589;12.568;99.958;2022-11-25T03:42:32;7.38;;;6.70;;
74229;SDS011;62589;12.568;99.958;2022-11-25T03:44:59;7.65;;;6.60;;
74229;SDS011;62589;12.568;99.958;2022-11-25T03:47:25;6.57;;;5.97;;
74229;SDS011;62589;12.568;99.958;2022-11-25T03:49:52;6.97;;;5.70;;
74229;SDS011;62589;12.568;99.958;2022-11-25T03:52:18;5.90;;;5.30;;
74229;SDS011;62589;12.568;99.958;2022-11-25T03:54:45;6.18;;;5.57;;
74229;SDS011;62589;12.568;99.958;2022-11-25T03:57:11;4.90;;;4.45;;
74229;SDS011;62589;12.568;99.958;2022-11-25T04:00:40;5.38;;;4.72;;
74229;SDS011;62589;12.568;99.958;2022-11-25T04:03:07;4.68;;;4.07;;
74229;SDS011;62589;12.568;99.958;2022-11-25T04:05:34;3.45;;;3.13;;
74229;SDS011;62589;12.568;99.958;2022-11-25T04:08:01;3.42;;;2.58;;
74229;SDS011;62589;12.568;99.958;2022-11-25T04:13:13;3.50;;;0.85;;
74229;SDS011;62589;12.568;99.958;2022-11-25T04:15:44;2.53;;;0.80;;
74229;SDS011;62589;12.568;99.958;2022-11-25T04:18:12;1.40;;;0.50;;
74229;SDS011;62589;12.568;99.958;2022-11-25T04:20:39;4.00;;;0.70;;
74229;SDS011;62589;12.568;99.958;2022-11-25T04:23:06;1.38;;;0.60;;
74229;SDS011;62589;12.568;99.958;2022-11-25T04:25:34;6.05;;;0.75;;
74229;SDS011;62589;12.568;99.958;2022-11-25T04:28:01;5.70;;;0.75;;
74229;SDS011;62589;12.568;99.958;2022-11-25T04:30:28;4.15;;;0.88;;
74229;SDS011;62589;12.568;99.958;2022-11-25T04:32:55;2.72;;;0.63;;
74229;SDS011;62589;12.568;99.958;2022-11-25T04:35:22;5.50;;;1.48;;
74229;SDS011;62589;12.568;99.958;2022-11-25T04:37:48;6.13;;;0.90;;
74229;SDS011;62589;12.568;99.958;2022-11-25T04:40:15;2.97;;;1.15;;
74229;SDS011;62589;12.568;99.958;2022-11-25T04:42:41;6.00;;;1.00;;
74229;SDS011;62589;12.568;99.958;2022-11-25T04:45:11;3.83;;;0.98;;
74229;SDS011;62589;12.568;99.958;2022-11-25T04:47:40;4.32;;;0.85;;
74229;SDS011;62589;12.568;99.958;2022-11-25T04:50:10;6.63;;;1.00;;
74229;SDS011;62589;12.568;99.958;2022-11-25T04:52:40;3.08;;;0.80;;
74229;SDS011;62589;12.568;99.958;2022-11-25T04:55:07;5.50;;;1.10;;
74229;SDS011;62589;12.568;99.958;2022-11-25T04:57:33;4.28;;;1.00;;
74229;SDS011;62589;12.568;99.958;2022-11-25T05:00:00;2.72;;;0.85;;
74229;SDS011;62589;12.568;99.958;2022-11-25T05:02:27;4.60;;;0.80;;
74229;SDS011;62589;12.568;99.958;2022-11-25T05:04:54;4.28;;;0.85;;
74229;SDS011;62589;12.568;99.958;2022-11-25T05:07:22;5.70;;;1.23;;
74229;SDS011;62589;12.568;99.958;2022-11-25T05:09:50;4.28;;;0.40;;
74229;SDS011;62589;12.568;99.958;2022-11-25T05:12:22;3.33;;;0.30;;
74229;SDS011;62589;12.568;99.958;2022-11-25T05:14:49;2.72;;;0.60;;
74229;SDS011;62589;12.568;99.958;2022-11-25T05:17:17;3.03;;;0.50;;
74229;SDS011;62589;12.568;99.958;2022-11-25T05:19:45;2.22;;;0.40;;
74229;SDS011;62589;12.568;99.958;2022-11-25T05:22:13;2.55;;;0.50;;
74229;SDS011;62589;12.568;99.958;2022-11-25T05:24:40;1.65;;;0.30;;
74229;SDS011;62589;12.568;99.958;2022-11-25T05:27:07;1.08;;;0.30;;
74229;SDS011;62589;12.568;99.958;2022-11-25T05:29:34;1.95;;;0.40;;
74229;SDS011;62589;12.568;99.958;2022-11-25T05:32:02;2.38;;;0.45;;
74229;SDS011;62589;12.568;99.958;2022-11-25T05:34:29;1.38;;;0.43;;
74229;SDS011;62589;12.568;99.958;2022-11-25T05:36:55;1.98;;;0.50;;
74229;SDS011;62589;12.568;99.958;2022-11-25T05:39:22;0.30;;;0.30;;
74229;SDS011;62589;12.568;99.958;2022-11-25T05:41:48;5.88;;;0.77;;
74229;SDS011;62589;12.568;99.958;2022-11-25T05:44:15;0.75;;;0.60;;
74229;SDS011;62589;12.568;99.958;2022-11-25T05:46:43;1.92;;;0.68;;
74229;SDS011;62589;12.568;99.958;2022-11-25T05:49:11;3.45;;;1.17;;
74229;SDS011;62589;12.568;99.958;2022-11-25T05:51:38;4.10;;;1.20;;
74229;SDS011;62589;12.568;99.958;2022-11-25T05:54:04;2.75;;;1.23;;
74229;SDS011;62589;12.568;99.958;2022-11-25T05:56:30;5.57;;;1.67;;
74229;SDS011;62589;12.568;99.958;2022-11-25T05:58:57;5.35;;;1.40;;
74229;SDS011;62589;12.568;99.958;2022-11-25T06:01:25;8.32;;;2.40;;
74229;SDS011;62589;12.568;99.958;2022-11-25T06:03:51;7.57;;;2.20;;
74229;SDS011;62589;12.568;99.958;2022-11-25T06:06:18;8.80;;;2.40;;
74229;SDS011;62589;12.568;99.958;2022-11-25T06:08:45;6.07;;;2.25;;
74229;SDS011;62589;12.568;99.958;2022-11-25T06:11:13;6.47;;;1.80;;
74229;SDS011;62589;12.568;99.958;2022-11-25T06:13:42;8.65;;;2.78;;
74229;SDS011;62589;12.568;99.958;2022-11-25T06:16:10;4.03;;;1.95;;
74229;SDS011;62589;12.568;99.958;2022-11-25T06:18:38;7.70;;;2.25;;
74229;SDS011;62589;12.568;99.958;2022-11-25T06:21:05;5.78;;;1.77;;
74229;SDS011;62589;12.568;99.958;2022-11-25T06:23:33;6.55;;;2.10;;
74229;SDS011;62589;12.568;99.958;2022-11-25T06:26:06;3.45;;;1.67;;
74229;SDS011;62589;12.568;99.958;2022-11-25T06:28:36;5.05;;;1.50;;
74229;SDS011;62589;12.568;99.958;2022-11-25T06:31:04;4.30;;;1.67;;
74229;SDS011;62589;12.568;99.958;2022-11-25T06:33:32;4.35;;;1.50;;
74229;SDS011;62589;12.568;99.958;2022-11-25T06:35:58;5.18;;;1.65;;
74229;SDS011;62589;12.568;99.958;2022-11-25T06:38:28;2.22;;;1.45;;
74229;SDS011;62589;12.568;99.958;2022-11-25T06:40:58;2.75;;;1.13;;
74229;SDS011;62589;12.568;99.958;2022-11-25T06:43:26;3.40;;;1.40;;
74229;SDS011;62589;12.568;99.958;2022-11-25T06:45:52;6.35;;;1.50;;
74229;SDS011;62589;12.568;99.958;2022-11-25T06:48:19;2.88;;;1.25;;
74229;SDS011;62589;12.568;99.958;2022-11-25T06:50:53;5.20;;;1.20;;
74229;SDS011;62589;12.568;99.958;2022-11-25T06:53:21;2.95;;;1.50;;
74229;SDS011;62589;12.568;99.958;2022-11-25T06:55:47;2.58;;;0.90;;
74229;SDS011;62589;12.568;99.958;2022-11-25T06:58:14;3.28;;;1.33;;
74229;SDS011;62589;12.568;99.958;2022-11-25T07:00:40;1.20;;;0.88;;
74229;SDS011;62589;12.568;99.958;2022-11-25T07:03:06;4.80;;;1.63;;
74229;SDS011;62589;12.568;99.958;2022-11-25T07:05:33;3.45;;;1.38;;
74229;SDS011;62589;12.568;99.958;2022-11-25T07:07:59;1.95;;;1.10;;
74229;SDS011;62589;12.568;99.958;2022-11-25T07:10:25;3.67;;;1.40;;
74229;SDS011;62589;12.568;99.958;2022-11-25T07:12:52;1.83;;;1.20;;
74229;SDS011;62589;12.568;99.958;2022-11-25T07:15:18;2.00;;;1.23;;
74229;SDS011;62589;12.568;99.958;2022-11-25T07:17:45;2.58;;;0.88;;
74229;SDS011;62589;12.568;99.958;2022-11-25T07:20:11;5.53;;;1.73;;
74229;SDS011;62589;12.568;99.958;2022-11-25T07:22:37;2.50;;;1.45;;
74229;SDS011;62589;12.568;99.958;2022-11-25T07:25:04;2.05;;;0.90;;
74229;SDS011;62589;12.568;99.958;2022-11-25T07:27:31;2.00;;;0.85;;
74229;SDS011;62589;12.568;99.958;2022-11-25T07:29:58;2.08;;;1.10;;
74229;SDS011;62589;12.568;99.958;2022-11-25T07:32:24;2.30;;;0.95;;
74229;SDS011;62589;12.568;99.958;2022-11-25T07:34:51;1.60;;;0.88;;
74229;SDS011;62589;12.568;99.958;2022-11-25T07:37:17;2.55;;;1.40;;
74229;SDS011;62589;12.568;99.958;2022-11-25T07:39:43;2.70;;;1.27;;
74229;SDS011;62589;12.568;99.958;2022-11-25T07:42:10;2.60;;;1.10;;
74229;SDS011;62589;12.568;99.958;2022-11-25T07:44:36;2.88;;;1.27;;
74229;SDS011;62589;12.568;99.958;2022-11-25T07:47:02;2.38;;;1.50;;
74229;SDS011;62589;12.568;99.958;2022-11-25T07:49:29;2.88;;;1.33;;
74229;SDS011;62589;12.568;99.958;2022-11-25T07:51:56;2.53;;;1.42;;
74229;SDS011;62589;12.568;99.958;2022-11-25T07:56:56;2.45;;;1.42;;
74229;SDS011;62589;12.568;99.958;2022-11-25T07:59:23;4.07;;;1.05;;
74229;SDS011;62589;12.568;99.958;2022-11-25T08:01:50;1.58;;;1.10;;
74229;SDS011;62589;12.568;99.958;2022-11-25T08:04:18;1.10;;;1.00;;
74229;SDS011;62589;12.568;99.958;2022-11-25T08:06:45;1.63;;;0.98;;
74229;SDS011;62589;12.568;99.958;2022-11-25T08:09:14;1.50;;;0.80;;
74229;SDS011;62589;12.568;99.958;2022-11-25T08:11:44;1.73;;;0.80;;
74229;SDS011;62589;12.568;99.958;2022-11-25T08:14:12;1.67;;;1.00;;
74229;SDS011;62589;12.568;99.958;2022-11-25T08:16:39;1.42;;;0.60;;
74229;SDS011;62589;12.568;99.958;2022-11-25T08:19:07;1.73;;;1.10;;
74229;SDS011;62589;12.568;99.958;2022-11-25T08:21:36;1.17;;;0.80;;
74229;SDS011;62589;12.568;99.958;2022-11-25T08:24:02;1.88;;;1.00;;
74229;SDS011;62589;12.568;99.958;2022-11-25T08:26:30;2.13;;;0.82;;
74229;SDS011;62589;12.568;99.958;2022-11-25T08:29:01;1.83;;;0.88;;
74229;SDS011;62589;12.568;99.958;2022-11-25T08:31:30;1.10;;;1.00;;
74229;SDS011;62589;12.568;99.958;2022-11-25T08:33:58;1.20;;;0.80;;
74229;SDS011;62589;12.568;99.958;2022-11-25T08:36:25;1.70;;;0.70;;
74229;SDS011;62589;12.568;99.958;2022-11-25T08:38:53;1.00;;;0.75;;
74229;SDS011;62589;12.568;99.958;2022-11-25T08:41:26;1.23;;;0.60;;
74229;SDS011;62589;12.568;99.958;2022-11-25T08:43:55;1.40;;;0.70;;
74229;SDS011;62589;12.568;99.958;2022-11-25T08:46:23;1.48;;;0.63;;
74229;SDS011;62589;12.568;99.958;2022-11-25T08:48:51;2.20;;;0.70;;
74229;SDS011;62589;12.568;99.958;2022-11-25T08:51:19;0.68;;;0.57;;
74229;SDS011;62589;12.568;99.958;2022-11-25T08:53:51;1.48;;;0.85;;
74229;SDS011;62589;12.568;99.958;2022-11-25T08:56:18;2.85;;;0.93;;
74229;SDS011;62589;12.568;99.958;2022-11-25T08:58:45;3.47;;;1.20;;
74229;SDS011;62589;12.568;99.958;2022-11-25T09:01:13;1.20;;;0.85;;
74229;SDS011;62589;12.568;99.958;2022-11-25T09:03:42;1.05;;;0.90;;
74229;SDS011;62589;12.568;99.958;2022-11-25T09:06:10;2.67;;;1.20;;
74229;SDS011;62589;12.568;99.958;2022-11-25T09:08:38;0.88;;;0.60;;
74229;SDS011;62589;12.568;99.958;2022-11-25T09:11:06;1.17;;;0.70;;
74229;SDS011;62589;12.568;99.958;2022-11-25T09:13:32;1.70;;;0.70;;
74229;SDS011;62589;12.568;99.958;2022-11-25T09:15:59;1.42;;;0.77;;
74229;SDS011;62589;12.568;99.958;2022-11-25T09:18:26;2.58;;;0.80;;
74229;SDS011;62589;12.568;99.958;2022-11-25T09:20:55;2.05;;;0.80;;
74229;SDS011;62589;12.568;99.958;2022-11-25T09:23:22;1.85;;;1.10;;
74229;SDS011;62589;12.568;99.958;2022-11-25T09:25:50;3.35;;;1.17;;
74229;SDS011;62589;12.568;99.958;2022-11-25T09:28:19;3.65;;;1.10;;
74229;SDS011;62589;12.568;99.958;2022-11-25T09:30:48;2.10;;;0.90;;
74229;SDS011;62589;12.568;99.958;2022-11-25T09:33:14;2.15;;;0.75;;
74229;SDS011;62589;12.568;99.958;2022-11-25T09:35:41;6.55;;;1.48;;
74229;SDS011;62589;12.568;99.958;2022-11-25T09:38:08;1.35;;;0.60;;
74229;SDS011;62589;12.568;99.958;2022-11-25T09:40:38;1.65;;;0.60;;
74229;SDS011;62589;12.568;99.958;2022-11-25T09:43:26;2.95;;;0.60;;
74229;SDS011;62589;12.568;99.958;2022-11-25T09:46:33;2.15;;;0.60;;
74229;SDS011;62589;12.568;99.958;2022-11-25T09:52:19;1.13;;;0.30;;
74229;SDS011;62589;12.568;99.958;2022-11-25T09:55:11;3.65;;;0.50;;
74229;SDS011;62589;12.568;99.958;2022-11-25T10:00:39;0.57;;;0.43;;
74229;SDS011;62589;12.568;99.958;2022-11-25T10:06:02;1.80;;;0.50;;
74229;SDS011;62589;12.568;99.958;2022-11-25T10:08:40;1.45;;;0.40;;
74229;SDS011;62589;12.568;99.958;2022-11-25T10:11:21;2.67;;;0.50;;
74229;SDS011;62589;12.568;99.958;2022-11-25T10:14:12;1.25;;;0.45;;
74229;SDS011;62589;12.568;99.958;2022-11-25T10:19:38;0.85;;;0.70;;
74229;SDS011;62589;12.568;99.958;2022-11-25T10:22:26;0.50;;;0.38;;
74229;SDS011;62589;12.568;99.958;2022-11-25T10:24:58;1.52;;;0.50;;
74229;SDS011;62589;12.568;99.958;2022-11-25T10:27:30;1.08;;;0.60;;
74229;SDS011;62589;12.568;99.958;2022-11-25T10:33:12;1.48;;;0.50;;
74229;SDS011;62589;12.568;99.958;2022-11-25T10:35:52;1.40;;;0.70;;
74229;SDS011;62589;12.568;99.958;2022-11-25T10:41:25;1.25;;;0.63;;
74229;SDS011;62589;12.568;99.958;2022-11-25T10:43:54;1.55;;;0.70;;
74229;SDS011;62589;12.568;99.958;2022-11-25T10:46:30;1.15;;;0.50;;
74229;SDS011;62589;12.568;99.958;2022-11-25T10:52:09;1.15;;;0.52;;
74229;SDS011;62589;12.568;99.958;2022-11-25T10:54:38;0.70;;;0.40;;
74229;SDS011;62589;12.568;99.958;2022-11-25T10:59:59;0.60;;;0.50;;
74229;SDS011;62589;12.568;99.958;2022-11-25T11:02:29;2.72;;;0.40;;
74229;SDS011;62589;12.568;99.958;2022-11-25T11:10:34;1.00;;;0.68;;
74229;SDS011;62589;12.568;99.958;2022-11-25T11:13:03;1.13;;;0.60;;
74229;SDS011;62589;12.568;99.958;2022-11-25T11:15:44;0.60;;;0.60;;
74229;SDS011;62589;12.568;99.958;2022-11-25T11:21:19;0.82;;;0.40;;
74229;SDS011;62589;12.568;99.958;2022-11-25T11:29:47;5.95;;;3.00;;
74229;SDS011;62589;12.568;99.958;2022-11-25T11:32:59;14.05;;;6.18;;
74229;SDS011;62589;12.568;99.958;2022-11-25T11:35:32;21.65;;;9.93;;
74229;SDS011;62589;12.568;99.958;2022-11-25T11:38:17;27.25;;;12.43;;
74229;SDS011;62589;12.568;99.958;2022-11-25T11:40:58;17.98;;;9.88;;
74229;SDS011;62589;12.568;99.958;2022-11-25T11:43:43;19.50;;;9.68;;
74229;SDS011;62589;12.568;99.958;2022-11-25T11:46:30;21.55;;;9.05;;
74229;SDS011;62589;12.568;99.958;2022-11-25T11:58:07;14.00;;;6.97;;
74229;SDS011;62589;12.568;99.958;2022-11-25T12:00:55;14.75;;;6.95;;
74229;SDS011;62589;12.568;99.958;2022-11-25T12:03:49;15.15;;;7.00;;
74229;SDS011;62589;12.568;99.958;2022-11-25T12:06:24;14.07;;;6.88;;
74229;SDS011;62589;12.568;99.958;2022-11-25T12:08:57;13.40;;;6.70;;
74229;SDS011;62589;12.568;99.958;2022-11-25T12:11:31;11.32;;;5.72;;
74229;SDS011;62589;12.568;99.958;2022-11-25T12:14:08;9.90;;;3.88;;
74229;SDS011;62589;12.568;99.958;2022-11-25T12:16:46;7.88;;;3.83;;
74229;SDS011;62589;12.568;99.958;2022-11-25T12:19:37;6.38;;;3.20;;
74229;SDS011;62589;12.568;99.958;2022-11-25T12:22:24;4.63;;;2.30;;
74229;SDS011;62589;12.568;99.958;2022-11-25T12:25:09;3.92;;;1.83;;
74229;SDS011;62589;12.568;99.958;2022-11-25T12:33:09;3.42;;;1.00;;
74229;SDS011;62589;12.568;99.958;2022-11-25T12:35:57;1.58;;;1.23;;
74229;SDS011;62589;12.568;99.958;2022-11-25T12:46:54;2.10;;;0.70;;
74229;SDS011;62589;12.568;99.958;2022-11-25T12:49:30;2.67;;;0.70;;
74229;SDS011;62589;12.568;99.958;2022-11-25T13:01:10;3.72;;;0.70;;
74229;SDS011;62589;12.568;99.958;2022-11-25T13:07:09;1.90;;;0.50;;
74229;SDS011;62589;12.568;99.958;2022-11-25T13:13:01;3.80;;;0.82;;
74229;SDS011;62589;12.568;99.958;2022-11-25T13:15:46;2.25;;;0.70;;
74229;SDS011;62589;12.568;99.958;2022-11-25T13:20:48;4.82;;;0.73;;
74229;SDS011;62589;12.568;99.958;2022-11-25T13:23:21;1.27;;;0.50;;
74229;SDS011;62589;12.568;99.958;2022-11-25T13:25:50;4.97;;;0.93;;
74229;SDS011;62589;12.568;99.958;2022-11-25T13:31:17;1.63;;;0.57;;
74229;SDS011;62589;12.568;99.958;2022-11-25T13:34:06;3.03;;;0.63;;
74229;SDS011;62589;12.568;99.958;2022-11-25T13:36:45;1.00;;;0.50;;
74229;SDS011;62589;12.568;99.958;2022-11-25T13:39:17;3.97;;;0.50;;
74229;SDS011;62589;12.568;99.958;2022-11-25T13:41:58;2.25;;;0.73;;
74229;SDS011;62589;12.568;99.958;2022-11-25T13:44:34;5.63;;;0.88;;
74229;SDS011;62589;12.568;99.958;2022-11-25T13:50:19;3.47;;;0.60;;
74229;SDS011;62589;12.568;99.958;2022-11-25T13:55:45;2.85;;;0.65;;
74229;SDS011;62589;12.568;99.958;2022-11-25T13:58:21;4.60;;;0.85;;
74229;SDS011;62589;12.568;99.958;2022-11-25T14:01:02;0.85;;;0.40;;
74229;SDS011;62589;12.568;99.958;2022-11-25T14:06:18;1.70;;;0.50;;
74229;SDS011;62589;12.568;99.958;2022-11-25T14:09:13;1.38;;;0.55;;
74229;SDS011;62589;12.568;99.958;2022-11-25T14:11:57;3.92;;;0.85;;
74229;SDS011;62589;12.568;99.958;2022-11-25T14:20:35;2.30;;;1.02;;
74229;SDS011;62589;12.568;99.958;2022-11-25T14:26:10;3.85;;;0.93;;
74229;SDS011;62589;12.568;99.958;2022-11-25T14:28:54;4.28;;;0.85;;
74229;SDS011;62589;12.568;99.958;2022-11-25T14:31:33;5.80;;;0.85;;
74229;SDS011;62589;12.568;99.958;2022-11-25T14:34:10;1.52;;;0.70;;
74229;SDS011;62589;12.568;99.958;2022-11-25T14:37:00;3.15;;;0.63;;
74229;SDS011;62589;12.568;99.958;2022-11-25T14:42:26;2.22;;;0.50;;
74229;SDS011;62589;12.568;99.958;2022-11-25T14:44:59;0.93;;;0.57;;
74229;SDS011;62589;12.568;99.958;2022-11-25T14:47:28;2.05;;;0.50;;
74229;SDS011;62589;12.568;99.958;2022-11-25T14:50:03;1.80;;;0.52;;
74229;SDS011;62589;12.568;99.958;2022-11-25T14:52:37;2.50;;;0.90;;
74229;SDS011;62589;12.568;99.958;2022-11-25T14:55:08;2.38;;;0.52;;
74229;SDS011;62589;12.568;99.958;2022-11-25T14:57:38;1.60;;;0.50;;
74229;SDS011;62589;12.568;99.958;2022-11-25T15:00:11;1.65;;;0.60;;
74229;SDS011;62589;12.568;99.958;2022-11-25T15:02:53;3.08;;;0.43;;
74229;SDS011;62589;12.568;99.958;2022-11-25T15:05:23;2.40;;;0.70;;
74229;SDS011;62589;12.568;99.958;2022-11-25T15:10:40;5.47;;;1.10;;
74229;SDS011;62589;12.568;99.958;2022-11-25T15:16:03;3.80;;;1.73;;
74229;SDS011;62589;12.568;99.958;2022-11-25T15:18:46;5.15;;;2.03;;
74229;SDS011;62589;12.568;99.958;2022-11-25T15:21:22;3.50;;;1.88;;
74229;SDS011;62589;12.568;99.958;2022-11-25T15:24:01;4.53;;;1.67;;
74229;SDS011;62589;12.568;99.958;2022-11-25T15:26:30;3.72;;;2.00;;
74229;SDS011;62589;12.568;99.958;2022-11-25T15:29:00;7.65;;;2.33;;
74229;SDS011;62589;12.568;99.958;2022-11-25T15:31:34;4.57;;;2.03;;
74229;SDS011;62589;12.568;99.958;2022-11-25T15:34:05;6.32;;;2.17;;
74229;SDS011;62589;12.568;99.958;2022-11-25T15:36:35;2.45;;;1.70;;
74229;SDS011;62589;12.568;99.958;2022-11-25T15:41:51;3.85;;;1.77;;
74229;SDS011;62589;12.568;99.958;2022-11-25T15:44:25;3.28;;;1.70;;
74229;SDS011;62589;12.568;99.958;2022-11-25T15:47:02;4.72;;;1.80;;
74229;SDS011;62589;12.568;99.958;2022-11-25T15:49:56;3.90;;;2.22;;
74229;SDS011;62589;12.568;99.958;2022-11-25T15:52:28;3.13;;;1.58;;
74229;SDS011;62589;12.568;99.958;2022-11-25T15:58:02;8.05;;;2.03;;
74229;SDS011;62589;12.568;99.958;2022-11-25T16:00:37;5.70;;;1.65;;
74229;SDS011;62589;12.568;99.958;2022-11-25T16:05:54;3.05;;;1.50;;
74229;SDS011;62589;12.568;99.958;2022-11-25T16:08:30;2.35;;;1.20;;
74229;SDS011;62589;12.568;99.958;2022-11-25T16:11:11;2.30;;;1.13;;
74229;SDS011;62589;12.568;99.958;2022-11-25T16:13:41;5.10;;;1.50;;
74229;SDS011;62589;12.568;99.958;2022-11-25T16:19:02;2.83;;;1.88;;
74229;SDS011;62589;12.568;99.958;2022-11-25T16:21:51;3.03;;;1.35;;
74229;SDS011;62589;12.568;99.958;2022-11-25T16:27:19;4.55;;;1.55;;
74229;SDS011;62589;12.568;99.958;2022-11-25T16:29:49;1.50;;;1.35;;
74229;SDS011;62589;12.568;99.958;2022-11-25T16:32:19;1.77;;;1.40;;
74229;SDS011;62589;12.568;99.958;2022-11-25T16:34:48;2.15;;;1.30;;
74229;SDS011;62589;12.568;99.958;2022-11-25T16:37:15;4.30;;;1.52;;
74229;SDS011;62589;12.568;99.958;2022-11-25T16:39:42;1.15;;;1.00;;
74229;SDS011;62589;12.568;99.958;2022-11-25T16:42:13;3.38;;;1.58;;
74229;SDS011;62589;12.568;99.958;2022-11-25T16:44:46;4.57;;;1.88;;
74229;SDS011;62589;12.568;99.958;2022-11-25T16:47:15;2.38;;;1.60;;
74229;SDS011;62589;12.568;99.958;2022-11-25T16:49:43;2.97;;;1.70;;
74229;SDS011;62589;12.568;99.958;2022-11-25T16:52:11;6.60;;;2.50;;
74229;SDS011;62589;12.568;99.958;2022-11-25T16:54:38;3.50;;;1.95;;
74229;SDS011;62589;12.568;99.958;2022-11-25T16:57:06;5.20;;;2.17;;
74229;SDS011;62589;12.568;99.958;2022-11-25T16:59:39;5.93;;;2.05;;
74229;SDS011;62589;12.568;99.958;2022-11-25T17:02:25;5.53;;;1.83;;
74229;SDS011;62589;12.568;99.958;2022-11-25T17:04:52;3.92;;;1.40;;
74229;SDS011;62589;12.568;99.958;2022-11-25T17:07:20;3.38;;;1.25;;
74229;SDS011;62589;12.568;99.958;2022-11-25T17:09:47;3.10;;;1.20;;
74229;SDS011;62589;12.568;99.958;2022-11-25T17:12:26;3.17;;;0.90;;